createdAt,value
2022-12-18T00:01:22.520Z,-11.2
2022-12-18T00:04:22.624Z,-11.2
2022-12-18T00:07:22.454Z,-11.2
2022-12-18T00:10:22.502Z,-11.2
2022-12-18T00:13:22.465Z,-11.2
2022-12-18T00:16:22.541Z,-11.2
2022-12-18T00:19:22.477Z,-11.3
2022-12-18T00:22:22.483Z,-11.4
2022-12-18T00:25:22.502Z,-11.5
2022-12-18T00:28:22.525Z,-11.7
2022-12-18T00:31:22.576Z,-11.8
2022-12-18T00:34:22.515Z,-11.8
2022-12-18T00:37:22.526Z,-11.7
2022-12-18T00:40:22.541Z,-11.7
2022-12-18T00:43:22.538Z,-11.6
2022-12-18T00:46:22.563Z,-11.6
2022-12-18T00:49:22.556Z,-11.5
2022-12-18T00:52:22.561Z,-11.5
2022-12-18T00:55:22.576Z,-11.5
2022-12-18T00:58:22.576Z,-11.6
2022-12-18T01:01:22.657Z,-11.7
2022-12-18T01:04:22.613Z,-11.7
2022-12-18T01:07:22.603Z,-11.8
2022-12-18T01:10:22.611Z,-11.8
2022-12-18T01:13:22.611Z,-11.8
2022-12-18T01:16:22.657Z,-11.7
2022-12-18T01:19:22.630Z,-11.7
2022-12-18T01:22:22.660Z,-11.8
2022-12-18T01:25:22.664Z,-11.9
2022-12-18T01:28:22.660Z,-11.8
2022-12-18T01:31:22.693Z,-11.6
2022-12-18T01:34:22.675Z,-11.6
2022-12-18T01:37:22.686Z,-11.6
2022-12-18T01:40:22.704Z,-11.6
2022-12-18T01:43:22.703Z,-11.7
2022-12-18T01:46:22.715Z,-11.8
2022-12-18T01:49:22.723Z,-11.8
2022-12-18T01:52:22.726Z,-11.9
2022-12-18T01:55:22.743Z,-12
2022-12-18T01:58:22.751Z,-12
2022-12-18T02:01:22.834Z,-11.8
2022-12-18T02:04:22.773Z,-11.7
2022-12-18T02:07:22.781Z,-11.6
2022-12-18T02:10:22.820Z,-11.5
2022-12-18T02:13:22.924Z,-11.5
2022-12-18T02:16:22.868Z,-11.5
2022-12-18T02:19:22.818Z,-11.5
2022-12-18T02:22:23.045Z,-11.4
2022-12-18T02:25:22.849Z,-11.4
2022-12-18T02:28:22.858Z,-11.4
2022-12-18T02:31:22.979Z,-11.4
2022-12-18T02:34:22.864Z,-11.5
2022-12-18T02:37:22.870Z,-11.7
2022-12-18T02:40:22.883Z,-11.7
2022-12-18T02:43:22.878Z,-11.6
2022-12-18T02:46:22.891Z,-11.5
2022-12-18T02:49:23.016Z,-11.5
2022-12-18T02:52:22.900Z,-11.4
2022-12-18T02:55:22.911Z,-11.6
2022-12-18T02:58:22.911Z,-11.7
2022-12-18T03:01:23.060Z,-11.8
2022-12-18T03:04:22.921Z,-11.9
2022-12-18T03:07:23.050Z,-12
2022-12-18T03:10:22.940Z,-12
2022-12-18T03:13:22.934Z,-12
2022-12-18T03:16:22.960Z,-11.9
2022-12-18T03:19:22.938Z,-11.9
2022-12-18T03:22:22.945Z,-11.9
2022-12-18T03:25:28.940Z,-11.9
2022-12-18T03:28:23.086Z,-12
2022-12-18T03:31:23.053Z,-12.1
2022-12-18T03:34:22.959Z,-12.1
2022-12-18T03:37:22.967Z,-12.2
2022-12-18T03:40:22.983Z,-12.2
2022-12-18T03:43:22.976Z,-12.2
2022-12-18T03:46:23.131Z,-12.1
2022-12-18T03:49:22.982Z,-12.1
2022-12-18T03:52:22.991Z,-12
2022-12-18T03:55:23.012Z,-12
2022-12-18T03:58:23.015Z,-12
2022-12-18T04:01:23.087Z,-12.1
2022-12-18T04:04:23.127Z,-12
2022-12-18T04:07:23.020Z,-12
2022-12-18T04:10:23.034Z,-12
2022-12-18T04:13:23.020Z,-12
2022-12-18T04:16:23.040Z,-12.1
2022-12-18T04:19:23.028Z,-12
2022-12-18T04:22:23.162Z,-12.1
2022-12-18T04:25:23.051Z,-12.3
2022-12-18T04:28:23.044Z,-12.4
2022-12-18T04:31:23.140Z,-12.3
2022-12-18T04:34:23.049Z,-12.3
2022-12-18T04:37:23.054Z,-12.2
2022-12-18T04:40:23.191Z,-12.1
2022-12-18T04:43:23.097Z,-12.1
2022-12-18T04:46:23.146Z,-12.2
2022-12-18T04:49:23.076Z,-12.3
2022-12-18T04:52:24.105Z,-12.3
2022-12-18T04:55:23.092Z,-12.4
2022-12-18T04:58:23.206Z,-12.5
2022-12-18T05:01:23.182Z,-12.5
2022-12-18T05:04:23.089Z,-12.5
2022-12-18T05:07:23.100Z,-12.5
2022-12-18T05:10:23.120Z,-12.4
2022-12-18T05:13:23.114Z,-12.4
2022-12-18T05:16:23.322Z,-12.3
2022-12-18T05:19:23.136Z,-12.2
2022-12-18T05:22:23.133Z,-12.1
2022-12-18T05:25:23.148Z,-12.1
2022-12-18T05:28:23.139Z,-12
2022-12-18T05:31:23.320Z,-11.9
2022-12-18T05:34:23.275Z,-11.9
2022-12-18T05:37:23.153Z,-11.9
2022-12-18T05:40:23.188Z,-11.8
2022-12-18T05:43:23.170Z,-11.6
2022-12-18T05:46:23.203Z,-11.5
2022-12-18T05:49:23.178Z,-11.5
2022-12-18T05:52:23.299Z,-11.5
2022-12-18T05:55:23.196Z,-11.5
2022-12-18T05:58:23.189Z,-11.6
2022-12-18T06:01:23.236Z,-11.6
2022-12-18T06:04:23.197Z,-11.7
2022-12-18T06:07:23.211Z,-11.7
2022-12-18T06:10:23.345Z,-11.7
2022-12-18T06:13:23.212Z,-11.7
2022-12-18T06:16:23.270Z,-11.7
2022-12-18T06:19:23.221Z,-11.7
2022-12-18T06:22:23.229Z,-11.8
2022-12-18T06:25:23.240Z,-11.8
2022-12-18T06:28:23.355Z,-11.8
2022-12-18T06:31:23.300Z,-12
2022-12-18T06:34:23.241Z,-12
2022-12-18T06:37:23.247Z,-12
2022-12-18T06:40:23.261Z,-12.1
2022-12-18T06:43:23.255Z,-12.2
2022-12-18T06:46:23.382Z,-12.2
2022-12-18T06:49:26.175Z,-12.2
2022-12-18T06:52:23.271Z,-12.3
2022-12-18T06:55:23.283Z,-12.3
2022-12-18T06:58:23.278Z,-12.3
2022-12-18T07:01:23.443Z,-12.4
2022-12-18T07:04:23.412Z,-12.4
2022-12-18T07:07:23.295Z,-12.5
2022-12-18T07:10:23.308Z,-12.4
2022-12-18T07:13:23.313Z,-12.4
2022-12-18T07:16:25.068Z,-12.3
2022-12-18T07:19:23.318Z,-12.3
2022-12-18T07:22:23.444Z,-12.4
2022-12-18T07:25:23.340Z,-12.4
2022-12-18T07:28:23.337Z,-12.5
2022-12-18T07:31:23.408Z,-12.5
2022-12-18T07:34:23.337Z,-12.4
2022-12-18T07:37:23.347Z,-12.4
2022-12-18T07:40:23.485Z,-12.4
2022-12-18T07:43:23.352Z,-12.4
2022-12-18T07:46:23.406Z,-12.4
2022-12-18T07:49:23.362Z,-12.3
2022-12-18T07:52:26.069Z,-12.3
2022-12-18T07:55:23.375Z,-12.2
2022-12-18T07:58:23.490Z,-12.1
2022-12-18T08:01:23.605Z,-12
2022-12-18T08:04:23.377Z,-11.8
2022-12-18T08:07:23.378Z,-11.6
2022-12-18T08:10:23.400Z,-11.4
2022-12-18T08:13:23.396Z,-11.2
2022-12-18T08:16:23.601Z,-11.1
2022-12-18T08:19:23.406Z,-10.9
2022-12-18T08:22:23.408Z,-10.7
2022-12-18T08:25:23.424Z,-10.4
2022-12-18T08:28:23.421Z,-10.1
2022-12-18T08:31:23.523Z,-9.9
2022-12-18T08:34:23.549Z,-9.6
2022-12-18T08:37:23.433Z,-9.3
2022-12-18T08:40:23.450Z,-9
2022-12-18T08:43:23.438Z,-8.8
2022-12-18T08:46:23.553Z,-8.7
2022-12-18T08:49:23.448Z,-8.5
2022-12-18T08:52:23.565Z,-8.3
2022-12-18T08:55:23.470Z,-8.2
2022-12-18T08:58:23.461Z,-8.2
2022-12-18T09:01:23.604Z,-8.1
2022-12-18T09:04:23.501Z,-7.9
2022-12-18T09:07:23.478Z,-7.8
2022-12-18T09:10:23.650Z,-7.8
2022-12-18T09:13:23.488Z,-7.5
2022-12-18T09:16:27.323Z,-7.5
2022-12-18T09:19:23.493Z,-7.2
2022-12-18T09:22:23.497Z,-7.1
2022-12-18T09:25:23.509Z,-7
2022-12-18T09:28:23.632Z,-6.8
2022-12-18T09:31:23.578Z,-6.6
2022-12-18T09:34:23.516Z,-6.7
2022-12-18T09:37:23.523Z,-6.5
2022-12-18T09:40:23.536Z,-6.6
2022-12-18T09:43:23.527Z,-6.6
2022-12-18T09:46:23.675Z,-6.4
2022-12-18T09:49:23.539Z,-6.1
2022-12-18T09:52:23.551Z,-6.2
2022-12-18T09:55:23.553Z,-6
2022-12-18T09:58:23.549Z,-5.9
2022-12-18T10:01:23.706Z,-5.8
2022-12-18T10:04:29.576Z,-5.8
2022-12-18T10:07:28.854Z,-5.8
2022-12-18T10:10:23.688Z,-5.5
2022-12-18T10:13:24.111Z,-5.3
2022-12-18T10:16:23.614Z,-5.2
2022-12-18T10:19:23.578Z,-5.5
2022-12-18T10:22:23.585Z,-5.4
2022-12-18T10:25:23.603Z,-5.5
2022-12-18T10:28:23.714Z,-5.6
2022-12-18T10:31:24.608Z,-5.6
2022-12-18T10:34:23.599Z,-5.6
2022-12-18T10:37:23.600Z,-5.6
2022-12-18T10:40:23.661Z,-5.7
2022-12-18T10:43:23.610Z,-5.7
2022-12-18T10:46:29.681Z,-5.7
2022-12-18T10:49:23.754Z,-5.4
2022-12-18T10:52:23.626Z,-5.2
2022-12-18T10:55:23.644Z,-5.2
2022-12-18T10:58:26.712Z,-5.2
2022-12-18T11:01:23.723Z,-5.2
2022-12-18T11:04:23.646Z,-5.3
2022-12-18T11:07:23.808Z,-5.4
2022-12-18T11:10:23.659Z,-5.5
2022-12-18T11:13:23.658Z,-5.4
2022-12-18T11:16:23.675Z,-5.5
2022-12-18T11:19:23.669Z,-5.3
2022-12-18T11:22:23.674Z,-5.2
2022-12-18T11:25:32.802Z,-5.3
2022-12-18T11:28:23.691Z,-5.4
2022-12-18T11:31:23.738Z,-5.3
2022-12-18T11:34:30.998Z,-5.3
2022-12-18T11:37:23.694Z,-5.4
2022-12-18T11:40:23.728Z,-5.3
2022-12-18T11:43:23.820Z,-5.4
2022-12-18T11:46:23.753Z,-5.4
2022-12-18T11:49:23.707Z,-5.4
2022-12-18T11:52:23.717Z,-5.3
2022-12-18T11:55:23.726Z,-5.3
2022-12-18T11:58:27.858Z,-5.3
2022-12-18T12:01:23.886Z,-5.2
2022-12-18T12:04:23.777Z,-5.1
2022-12-18T12:07:23.743Z,-5
2022-12-18T12:10:23.753Z,-4.8
2022-12-18T12:13:23.750Z,-4.8
2022-12-18T12:16:23.830Z,-4.8
2022-12-18T12:19:23.875Z,-4.8
2022-12-18T12:22:23.755Z,-4.8
2022-12-18T12:25:23.772Z,-4.9
2022-12-18T12:28:23.769Z,-4.9
2022-12-18T12:31:23.797Z,-4.9
2022-12-18T12:34:23.781Z,-4.8
2022-12-18T12:37:29.542Z,-4.7
2022-12-18T12:41:00.715Z,-4.6
2022-12-18T12:43:23.907Z,-4.6
2022-12-18T12:46:23.901Z,-4.6
2022-12-18T12:49:23.799Z,-4.6
2022-12-18T12:52:23.804Z,-4.6
2022-12-18T12:55:24.335Z,-4.5
2022-12-18T12:58:23.809Z,-4.4
2022-12-18T13:01:24.218Z,-4.4
2022-12-18T13:04:23.816Z,-4.3
2022-12-18T13:07:23.870Z,-4.3
2022-12-18T13:10:23.832Z,-4.5
2022-12-18T13:13:24.314Z,-4.4
2022-12-18T13:16:23.834Z,-4.3
2022-12-18T13:19:23.957Z,-4.3
2022-12-18T13:22:23.851Z,-4.3
2022-12-18T13:25:23.847Z,-4.4
2022-12-18T13:28:23.837Z,-4.4
2022-12-18T13:31:23.843Z,-4.5
2022-12-18T13:34:26.492Z,-4.6
2022-12-18T13:37:24.004Z,-4.6
2022-12-18T13:40:23.860Z,-4.7
2022-12-18T13:43:23.853Z,-4.6
2022-12-18T13:46:23.873Z,-4.6
2022-12-18T13:49:23.880Z,-4.7
2022-12-18T13:52:23.882Z,-4.8
2022-12-18T13:55:24.023Z,-4.9
2022-12-18T13:58:23.907Z,-4.9
2022-12-18T14:01:24.023Z,-5
2022-12-18T14:04:23.923Z,-5.2
2022-12-18T14:07:23.936Z,-5.2
2022-12-18T14:10:42.160Z,-5.5
2022-12-18T14:13:24.065Z,-5.6
2022-12-18T14:16:23.963Z,-5.7
2022-12-18T14:19:23.955Z,-5.8
2022-12-18T14:22:23.959Z,-5.8
2022-12-18T14:25:23.970Z,-5.9
2022-12-18T14:28:23.963Z,-5.9
2022-12-18T14:31:24.131Z,-6
2022-12-18T14:34:23.976Z,-6
2022-12-18T14:37:23.982Z,-6.1
2022-12-18T14:40:24.002Z,-6.1
2022-12-18T14:43:23.993Z,-6.2
2022-12-18T14:46:24.023Z,-6.3
2022-12-18T14:49:24.120Z,-6.3
2022-12-18T14:52:24.004Z,-6.3
2022-12-18T14:55:24.023Z,-6.4
2022-12-18T14:58:24.016Z,-6.4
2022-12-18T15:01:24.134Z,-6.4
2022-12-18T15:04:24.022Z,-6.4
2022-12-18T15:07:24.145Z,-6.5
2022-12-18T15:10:24.056Z,-6.5
2022-12-18T15:13:24.094Z,-6.5
2022-12-18T15:16:24.117Z,-6.6
2022-12-18T15:19:24.058Z,-6.5
2022-12-18T15:22:24.058Z,-6.6
2022-12-18T15:25:24.212Z,-6.6
2022-12-18T15:28:24.063Z,-6.6
2022-12-18T15:31:24.171Z,-6.6
2022-12-18T15:34:24.090Z,-6.6
2022-12-18T15:37:24.084Z,-6.6
2022-12-18T15:40:24.100Z,-6.6
2022-12-18T15:43:24.204Z,-6.6
2022-12-18T15:46:24.173Z,-6.6
2022-12-18T15:49:24.098Z,-6.6
2022-12-18T15:52:24.108Z,-6.6
2022-12-18T15:55:24.123Z,-6.6
2022-12-18T15:58:24.119Z,-6.6
2022-12-18T16:01:24.332Z,-6.5
2022-12-18T16:04:24.124Z,-6.5
2022-12-18T16:07:25.678Z,-6.5
2022-12-18T16:10:24.141Z,-6.5
2022-12-18T16:13:24.134Z,-6.5
2022-12-18T16:16:24.225Z,-6.5
2022-12-18T16:19:24.363Z,-6.5
2022-12-18T16:22:24.147Z,-6.5
2022-12-18T16:25:24.167Z,-6.5
2022-12-18T16:28:24.154Z,-6.5
2022-12-18T16:31:24.199Z,-6.5
2022-12-18T16:34:25.073Z,-6.5
2022-12-18T16:37:24.299Z,-6.5
2022-12-18T16:40:24.189Z,-6.5
2022-12-18T16:43:24.194Z,-6.5
2022-12-18T16:46:24.203Z,-6.5
2022-12-18T16:49:24.189Z,-6.5
2022-12-18T16:52:24.199Z,-6.5
2022-12-18T16:55:24.329Z,-6.5
2022-12-18T16:58:24.203Z,-6.6
2022-12-18T17:01:24.285Z,-6.6
2022-12-18T17:04:24.216Z,-6.6
2022-12-18T17:07:24.213Z,-6.5
2022-12-18T17:10:24.228Z,-6.5
2022-12-18T17:13:25.966Z,-6.5
2022-12-18T17:16:24.317Z,-6.5
2022-12-18T17:19:24.325Z,-6.5
2022-12-18T17:22:24.265Z,-6.4
2022-12-18T17:25:24.269Z,-6.4
2022-12-18T17:28:24.256Z,-6.4
2022-12-18T17:31:24.431Z,-6.4
2022-12-18T17:34:24.277Z,-6.4
2022-12-18T17:37:24.276Z,-6.4
2022-12-18T17:40:24.292Z,-6.4
2022-12-18T17:43:24.281Z,-6.4
2022-12-18T17:46:24.326Z,-6.4
2022-12-18T17:49:24.405Z,-6.4
2022-12-18T17:52:24.289Z,-6.4
2022-12-18T17:55:24.296Z,-6.4
2022-12-18T17:58:24.291Z,-6.3
2022-12-18T18:01:24.480Z,-6.3
2022-12-18T18:04:24.390Z,-6.3
2022-12-18T18:07:24.433Z,-6.3
2022-12-18T18:10:24.339Z,-6.3
2022-12-18T18:13:24.326Z,-6.3
2022-12-18T18:16:24.414Z,-6.3
2022-12-18T18:19:24.343Z,-6.2
2022-12-18T18:22:24.340Z,-6.2
2022-12-18T18:25:24.473Z,-6.2
2022-12-18T18:28:24.347Z,-6.2
2022-12-18T18:31:24.389Z,-6.2
2022-12-18T18:34:24.352Z,-6.2
2022-12-18T18:37:24.356Z,-6.2
2022-12-18T18:40:24.381Z,-6.2
2022-12-18T18:43:24.491Z,-6.1
2022-12-18T18:46:24.372Z,-6.1
2022-12-18T18:49:24.382Z,-6.1
2022-12-18T18:52:24.379Z,-6.1
2022-12-18T18:55:25.406Z,-6
2022-12-18T18:58:24.388Z,-6
2022-12-18T19:01:24.660Z,-6.1
2022-12-18T19:04:24.404Z,-6.1
2022-12-18T19:07:30.827Z,-6
2022-12-18T19:10:24.429Z,-6
2022-12-18T19:13:24.415Z,-6
2022-12-18T19:16:24.445Z,-6
2022-12-18T19:19:24.547Z,-6
2022-12-18T19:22:24.424Z,-6
2022-12-18T19:25:28.332Z,-6
2022-12-18T19:28:24.433Z,-6
2022-12-18T19:31:26.238Z,-6
2022-12-18T19:34:24.446Z,-6
2022-12-18T19:37:24.564Z,-5.9
2022-12-18T19:40:24.463Z,-5.9
2022-12-18T19:43:24.452Z,-5.9
2022-12-18T19:46:24.596Z,-5.9
2022-12-18T19:49:24.466Z,-5.9
2022-12-18T19:52:24.470Z,-5.9
2022-12-18T19:55:24.607Z,-5.9
2022-12-18T19:58:24.478Z,-5.8
2022-12-18T20:01:24.653Z,-5.8
2022-12-18T20:04:24.556Z,-5.8
2022-12-18T20:07:24.505Z,-5.7
2022-12-18T20:10:24.528Z,-5.8
2022-12-18T20:13:24.629Z,-5.8
2022-12-18T20:16:24.608Z,-5.7
2022-12-18T20:19:24.549Z,-5.7
2022-12-18T20:22:24.558Z,-5.7
2022-12-18T20:25:24.536Z,-5.7
2022-12-18T20:28:24.632Z,-5.7
2022-12-18T20:31:24.803Z,-5.7
2022-12-18T20:34:24.644Z,-5.7
2022-12-18T20:37:24.697Z,-5.6
2022-12-18T20:40:24.720Z,-5.6
2022-12-18T20:43:24.627Z,-5.6
2022-12-18T20:46:24.785Z,-5.6
2022-12-18T20:49:24.677Z,-5.5
2022-12-18T20:52:24.567Z,-5.5
2022-12-18T20:55:24.576Z,-5.5
2022-12-18T20:58:24.568Z,-5.5
2022-12-18T21:01:24.679Z,-5.5
2022-12-18T21:04:24.579Z,-5.5
2022-12-18T21:07:24.703Z,-5.5
2022-12-18T21:10:24.599Z,-5.4
2022-12-18T21:13:24.600Z,-5.5
2022-12-18T21:16:24.607Z,-5.4
2022-12-18T21:19:24.602Z,-5.4
2022-12-18T21:22:24.607Z,-5.4
2022-12-18T21:25:24.743Z,-5.4
2022-12-18T21:28:24.617Z,-5.4
2022-12-18T21:31:24.691Z,-5.4
2022-12-18T21:34:24.620Z,-5.4
2022-12-18T21:37:24.624Z,-5.4
2022-12-18T21:40:24.683Z,-5.4
2022-12-18T21:43:24.765Z,-5.4
2022-12-18T21:46:24.700Z,-5.4
2022-12-18T21:49:24.649Z,-5.5
2022-12-18T21:52:29.851Z,-5.5
2022-12-18T21:55:24.674Z,-5.4
2022-12-18T21:58:24.663Z,-5.5
2022-12-18T22:01:30.541Z,-5.4
2022-12-18T22:04:24.794Z,-5.4
2022-12-18T22:07:24.682Z,-5.4
2022-12-18T22:10:24.696Z,-5.4
2022-12-18T22:13:24.693Z,-5.4
2022-12-18T22:16:24.746Z,-5.4
2022-12-18T22:19:24.693Z,-5.4
2022-12-18T22:22:24.834Z,-5.4
2022-12-18T22:25:24.712Z,-5.4
2022-12-18T22:28:24.705Z,-5.3
2022-12-18T22:31:24.767Z,-5.3
2022-12-18T22:34:24.716Z,-5.4
2022-12-18T22:37:24.717Z,-5.4
2022-12-18T22:40:25.539Z,-5.4
2022-12-18T22:43:24.725Z,-5.4
2022-12-18T22:46:24.807Z,-5.3
2022-12-18T22:49:24.745Z,-5.4
2022-12-18T22:52:25.260Z,-5.3
2022-12-18T22:55:24.769Z,-5.3
2022-12-18T22:58:24.887Z,-5.3
2022-12-18T23:01:24.841Z,-5.3
2022-12-18T23:04:24.773Z,-5.3
2022-12-18T23:07:24.770Z,-5.3
2022-12-18T23:10:24.791Z,-5.3
2022-12-18T23:13:24.781Z,-5.3
2022-12-18T23:16:24.970Z,-5.2
2022-12-18T23:19:24.802Z,-5.2
2022-12-18T23:22:24.798Z,-5.2
2022-12-18T23:25:24.805Z,-5.2
2022-12-18T23:28:24.804Z,-5.2
2022-12-18T23:31:24.848Z,-5.2
2022-12-18T23:34:24.921Z,-5.1
2022-12-18T23:37:50.210Z,-5.1
2022-12-18T23:40:24.827Z,-5.1
2022-12-18T23:43:24.824Z,-5.1
2022-12-18T23:46:24.884Z,-5.1
2022-12-18T23:49:24.835Z,-5.1
2022-12-18T23:52:24.955Z,-5.1
2022-12-18T23:55:24.850Z,-5.1
2022-12-18T23:58:24.845Z,-5
